createdAt,value
2018-09-30T00:01:33.779Z,13.20
2018-09-30T00:04:02.576Z,13.10
2018-09-30T00:06:31.384Z,13.10
2018-09-30T00:09:00.203Z,13.10
2018-09-30T00:11:29.057Z,13.10
2018-09-30T00:13:57.849Z,13.10
2018-09-30T00:16:26.652Z,13.10
2018-09-30T00:18:55.407Z,13.10
2018-09-30T00:21:24.240Z,13.10
2018-09-30T00:23:58.363Z,13.10
2018-09-30T00:26:32.457Z,13.10
2018-09-30T00:29:01.264Z,13.10
2018-09-30T00:31:30.088Z,13.10
2018-09-30T00:34:04.277Z,13.10
2018-09-30T00:36:33.096Z,13.10
2018-09-30T00:39:01.909Z,13.10
2018-09-30T00:41:30.717Z,13.10
2018-09-30T00:43:59.500Z,13.00
2018-09-30T00:46:28.323Z,13.00
2018-09-30T00:48:57.153Z,12.90
2018-09-30T00:51:25.937Z,12.90
2018-09-30T00:53:54.716Z,12.90
2018-09-30T00:56:23.518Z,12.90
2018-09-30T00:58:52.330Z,12.80
2018-09-30T01:01:21.108Z,12.80
2018-09-30T01:03:49.870Z,12.80
2018-09-30T01:06:18.649Z,12.80
2018-09-30T01:08:47.417Z,12.80
2018-09-30T01:11:16.276Z,12.90
2018-09-30T01:13:45.091Z,12.90
2018-09-30T01:16:13.864Z,12.90
2018-09-30T01:18:42.654Z,12.80
2018-09-30T01:21:11.480Z,12.80
2018-09-30T01:23:40.265Z,12.80
2018-09-30T01:26:09.056Z,12.80
2018-09-30T01:28:37.873Z,12.90
2018-09-30T01:31:07.031Z,12.80
2018-09-30T01:33:35.873Z,12.80
2018-09-30T01:36:04.651Z,12.80
2018-09-30T01:38:33.450Z,12.80
2018-09-30T01:41:02.219Z,12.80
2018-09-30T01:43:31.027Z,12.80
2018-09-30T01:45:59.876Z,12.80
2018-09-30T01:48:28.677Z,12.80
2018-09-30T01:50:57.490Z,12.80
2018-09-30T01:53:26.288Z,12.80
2018-09-30T01:55:55.088Z,12.70
2018-09-30T01:58:23.859Z,12.70
2018-09-30T02:00:52.652Z,12.70
2018-09-30T02:03:21.448Z,12.70
2018-09-30T02:05:50.217Z,12.70
2018-09-30T02:08:18.989Z,12.70
2018-09-30T02:10:47.799Z,12.70
2018-09-30T02:13:16.629Z,12.70
2018-09-30T02:15:45.454Z,12.70
2018-09-30T02:18:14.256Z,12.60
2018-09-30T02:20:43.055Z,12.60
2018-09-30T02:23:11.848Z,12.60
2018-09-30T02:25:40.679Z,12.60
2018-09-30T02:28:09.487Z,12.60
2018-09-30T02:30:38.293Z,12.60
2018-09-30T02:33:07.112Z,12.60
2018-09-30T02:35:35.913Z,12.60
2018-09-30T02:38:04.711Z,12.50
2018-09-30T02:40:33.555Z,12.50
2018-09-30T02:43:02.366Z,12.50
2018-09-30T02:45:31.184Z,12.50
2018-09-30T02:47:59.975Z,12.40
2018-09-30T02:50:28.833Z,12.50
2018-09-30T02:52:57.632Z,12.40
2018-09-30T02:55:26.454Z,12.40
2018-09-30T02:57:55.253Z,12.40
2018-09-30T03:00:24.039Z,12.40
2018-09-30T03:02:52.852Z,12.40
2018-09-30T03:05:21.664Z,12.40
2018-09-30T03:07:55.805Z,12.40
2018-09-30T03:10:24.632Z,12.40
2018-09-30T03:12:53.396Z,12.40
2018-09-30T03:15:22.220Z,12.30
2018-09-30T03:17:51.021Z,12.30
2018-09-30T03:20:19.880Z,12.30
2018-09-30T03:22:48.665Z,12.30
2018-09-30T03:25:17.487Z,12.30
2018-09-30T03:27:46.323Z,12.30
2018-09-30T03:30:15.140Z,12.30
2018-09-30T03:32:44.021Z,12.30
2018-09-30T03:35:12.810Z,12.30
2018-09-30T03:37:41.608Z,12.30
2018-09-30T03:40:10.440Z,12.30
2018-09-30T03:42:39.228Z,12.20
2018-09-30T03:45:08.469Z,12.20
2018-09-30T03:47:37.269Z,12.20
2018-09-30T03:50:06.090Z,12.20
2018-09-30T03:52:34.888Z,12.20
2018-09-30T03:55:03.747Z,12.20
2018-09-30T03:57:32.497Z,12.20
2018-09-30T04:00:01.300Z,12.10
2018-09-30T04:02:30.078Z,12.10
2018-09-30T04:04:58.880Z,12.10
2018-09-30T04:07:27.652Z,12.10
2018-09-30T04:09:56.482Z,12.00
2018-09-30T04:12:25.256Z,12.00
2018-09-30T04:14:54.038Z,12.00
2018-09-30T04:17:22.837Z,12.10
2018-09-30T04:19:51.577Z,12.10
2018-09-30T04:22:20.407Z,12.10
2018-09-30T04:24:49.246Z,12.00
2018-09-30T04:27:18.057Z,12.00
2018-09-30T04:29:46.826Z,12.00
2018-09-30T04:32:15.631Z,12.00
2018-09-30T04:34:44.457Z,12.00
2018-09-30T04:37:13.268Z,12.00
2018-09-30T04:39:42.064Z,12.00
2018-09-30T04:42:10.869Z,12.00
2018-09-30T04:44:39.680Z,12.00
2018-09-30T04:47:08.459Z,12.00
2018-09-30T04:49:37.240Z,12.00
2018-09-30T04:52:06.017Z,12.00
2018-09-30T04:54:34.784Z,12.00
2018-09-30T04:57:03.580Z,12.00
2018-09-30T04:59:32.439Z,12.00
2018-09-30T05:02:01.208Z,11.90
2018-09-30T05:04:29.996Z,11.90
2018-09-30T05:06:58.787Z,11.90
2018-09-30T05:09:27.588Z,11.90
2018-09-30T05:11:56.376Z,11.90
2018-09-30T05:14:25.151Z,11.80
2018-09-30T05:16:53.940Z,11.80
2018-09-30T05:19:22.780Z,11.70
2018-09-30T05:21:51.608Z,11.70
2018-09-30T05:24:20.445Z,11.80
2018-09-30T05:26:49.227Z,11.80
2018-09-30T05:29:18.025Z,11.80
2018-09-30T05:31:46.804Z,11.80
2018-09-30T05:34:15.680Z,11.80
2018-09-30T05:36:44.536Z,11.80
2018-09-30T05:39:13.316Z,11.80
2018-09-30T05:41:42.166Z,11.80
2018-09-30T05:44:10.960Z,11.80
2018-09-30T05:46:40.077Z,11.80
2018-09-30T05:49:09.218Z,11.70
2018-09-30T05:51:38.113Z,11.80
2018-09-30T05:54:07.009Z,11.80
2018-09-30T05:56:35.853Z,11.70
2018-09-30T05:59:04.698Z,11.80
2018-09-30T06:01:33.524Z,11.80
2018-09-30T06:04:02.319Z,11.80
2018-09-30T06:06:31.145Z,11.70
2018-09-30T06:08:59.951Z,11.80
2018-09-30T06:11:28.757Z,11.60
2018-09-30T06:13:57.597Z,11.70
2018-09-30T06:16:26.364Z,11.70
2018-09-30T06:18:55.232Z,11.70
2018-09-30T06:21:24.085Z,11.70
2018-09-30T06:23:52.898Z,11.70
2018-09-30T06:26:21.743Z,11.70
2018-09-30T06:28:50.564Z,11.60
2018-09-30T06:31:19.328Z,11.70
2018-09-30T06:33:48.121Z,11.60
2018-09-30T06:36:16.996Z,11.70
2018-09-30T06:38:45.840Z,11.70
2018-09-30T06:41:14.652Z,11.70
2018-09-30T06:43:43.476Z,11.70
2018-09-30T06:46:12.305Z,11.80
2018-09-30T06:48:41.089Z,11.80
2018-09-30T06:51:10.037Z,11.80
2018-09-30T06:53:38.880Z,11.80
2018-09-30T06:56:07.754Z,11.80
2018-09-30T06:58:36.586Z,11.70
2018-09-30T07:01:05.464Z,11.70
2018-09-30T07:03:34.288Z,11.70
2018-09-30T07:06:03.144Z,11.80
2018-09-30T07:08:31.913Z,11.80
2018-09-30T07:11:00.718Z,11.80
2018-09-30T07:13:29.587Z,11.90
2018-09-30T07:15:58.393Z,11.80
2018-09-30T07:18:27.389Z,11.80
2018-09-30T07:20:56.341Z,11.80
2018-09-30T07:23:25.131Z,11.90
2018-09-30T07:25:54.005Z,11.90
2018-09-30T07:28:22.819Z,11.90
2018-09-30T07:30:51.626Z,11.90
2018-09-30T07:33:20.414Z,12.00
2018-09-30T07:35:49.244Z,12.00
2018-09-30T07:38:18.064Z,12.00
2018-09-30T07:40:46.972Z,12.00
2018-09-30T07:43:15.772Z,12.00
2018-09-30T07:45:44.808Z,12.00
2018-09-30T07:48:13.671Z,12.10
2018-09-30T07:50:42.538Z,12.10
2018-09-30T07:53:11.369Z,12.10
2018-09-30T07:55:40.207Z,12.20
2018-09-30T07:58:09.046Z,12.20
2018-09-30T08:00:38.678Z,12.20
2018-09-30T08:03:07.526Z,12.20
2018-09-30T08:05:36.394Z,12.30
2018-09-30T08:08:05.171Z,12.30
2018-09-30T08:10:34.052Z,12.40
2018-09-30T08:13:02.880Z,12.40
2018-09-30T08:15:31.715Z,12.50
2018-09-30T08:18:00.574Z,12.50
2018-09-30T08:20:29.392Z,12.50
2018-09-30T08:22:58.214Z,12.50
2018-09-30T08:25:27.045Z,12.60
2018-09-30T08:27:55.858Z,12.60
2018-09-30T08:30:24.710Z,12.60
2018-09-30T08:32:53.528Z,12.60
2018-09-30T08:35:22.338Z,12.60
2018-09-30T08:37:56.407Z,12.60
2018-09-30T08:40:30.340Z,12.70
2018-09-30T08:42:59.143Z,12.70
2018-09-30T08:45:27.990Z,12.80
2018-09-30T08:47:57.076Z,12.80
2018-09-30T08:50:25.903Z,12.80
2018-09-30T08:52:54.654Z,12.80
2018-09-30T08:55:23.459Z,12.90
2018-09-30T08:57:52.305Z,12.90
2018-09-30T09:00:21.116Z,12.90
2018-09-30T09:02:49.902Z,12.90
2018-09-30T09:05:18.715Z,13.00
2018-09-30T09:07:47.528Z,13.00
2018-09-30T09:10:16.315Z,13.00
2018-09-30T09:12:45.128Z,13.10
2018-09-30T09:15:13.955Z,13.10
2018-09-30T09:17:42.778Z,13.20
2018-09-30T09:20:11.617Z,13.20
2018-09-30T09:22:40.449Z,13.30
2018-09-30T09:25:09.425Z,13.30
2018-09-30T09:27:38.228Z,13.40
2018-09-30T09:30:07.066Z,13.40
2018-09-30T09:32:37.811Z,13.40
2018-09-30T09:35:08.525Z,13.50
2018-09-30T09:37:38.226Z,13.50
2018-09-30T09:40:08.860Z,13.60
2018-09-30T09:42:37.792Z,13.70
2018-09-30T09:45:06.937Z,13.70
2018-09-30T09:47:35.798Z,13.80
2018-09-30T09:50:04.661Z,13.90
2018-09-30T09:52:33.554Z,14.00
2018-09-30T09:55:02.418Z,14.00
2018-09-30T09:57:31.222Z,14.10
2018-09-30T10:00:00.039Z,14.10
2018-09-30T10:02:28.868Z,14.20
2018-09-30T10:04:57.671Z,14.20
2018-09-30T10:07:26.732Z,14.30
2018-09-30T10:09:55.906Z,14.40
2018-09-30T10:12:24.693Z,14.40
2018-09-30T10:14:53.487Z,14.50
2018-09-30T10:17:22.406Z,14.60
2018-09-30T10:19:51.186Z,14.70
2018-09-30T10:22:19.977Z,14.70
2018-09-30T10:24:48.796Z,14.70
2018-09-30T10:27:17.623Z,14.90
2018-09-30T10:29:46.507Z,14.90
2018-09-30T10:32:15.746Z,15.00
2018-09-30T10:34:44.588Z,15.10
2018-09-30T10:37:13.544Z,15.20
2018-09-30T10:39:42.444Z,15.30
2018-09-30T10:42:11.264Z,15.40
2018-09-30T10:44:40.076Z,15.50
2018-09-30T10:47:08.930Z,15.60
2018-09-30T10:49:37.753Z,15.70
2018-09-30T10:52:06.680Z,15.70
2018-09-30T10:54:35.464Z,15.80
2018-09-30T10:57:04.381Z,15.90
2018-09-30T10:59:33.249Z,16.10
2018-09-30T11:02:02.092Z,16.20
2018-09-30T11:04:30.908Z,16.40
2018-09-30T11:07:00.122Z,16.50
2018-09-30T11:09:28.955Z,16.50
2018-09-30T11:11:57.796Z,16.70
2018-09-30T11:14:26.593Z,16.80
2018-09-30T11:16:55.400Z,16.80
2018-09-30T11:19:24.280Z,16.90
2018-09-30T11:21:53.247Z,17.00
2018-09-30T11:24:22.067Z,17.10
2018-09-30T11:26:50.872Z,17.20
2018-09-30T11:29:19.712Z,17.30
2018-09-30T11:31:48.635Z,17.40
2018-09-30T11:34:17.400Z,17.50
2018-09-30T11:36:46.173Z,17.70
2018-09-30T11:39:14.996Z,17.80
2018-09-30T11:41:44.415Z,17.90
2018-09-30T11:44:13.657Z,18.00
2018-09-30T11:46:42.515Z,18.10
2018-09-30T11:49:11.298Z,18.20
2018-09-30T11:51:40.146Z,18.30
2018-09-30T11:54:08.988Z,18.30
2018-09-30T11:56:37.839Z,18.50
2018-09-30T11:59:06.692Z,18.60
2018-09-30T12:01:35.525Z,18.70
2018-09-30T12:04:04.349Z,18.80
2018-09-30T12:06:33.183Z,18.90
2018-09-30T12:09:01.961Z,19.00
2018-09-30T12:11:30.824Z,19.00
2018-09-30T12:13:59.638Z,19.20
2018-09-30T12:16:28.473Z,19.30
2018-09-30T12:18:57.378Z,19.40
2018-09-30T12:21:26.212Z,19.40
2018-09-30T12:23:55.035Z,19.50
2018-09-30T12:26:23.912Z,19.60
2018-09-30T12:28:52.892Z,19.70
2018-09-30T12:31:21.752Z,19.80
2018-09-30T12:33:50.579Z,19.80
2018-09-30T12:36:19.397Z,19.90
2018-09-30T12:38:48.260Z,20.00
2018-09-30T12:41:17.159Z,20.00
2018-09-30T12:43:45.997Z,20.10
2018-09-30T12:46:14.836Z,20.20
2018-09-30T12:48:43.709Z,20.30
2018-09-30T12:51:12.556Z,20.40
2018-09-30T12:53:41.367Z,20.40
2018-09-30T12:56:10.285Z,20.50
2018-09-30T12:58:39.184Z,20.60
2018-09-30T13:01:08.045Z,20.60
2018-09-30T13:03:36.847Z,20.70
2018-09-30T13:06:05.699Z,20.80
2018-09-30T13:08:34.553Z,20.80
2018-09-30T13:11:03.367Z,20.90
2018-09-30T13:13:32.207Z,21.00
2018-09-30T13:16:01.049Z,21.00
2018-09-30T13:18:29.865Z,21.00
2018-09-30T13:20:58.812Z,21.10
2018-09-30T13:23:27.641Z,21.10
2018-09-30T13:25:56.525Z,21.20
2018-09-30T13:28:25.368Z,21.30
2018-09-30T13:30:54.310Z,21.30
2018-09-30T13:33:23.203Z,21.40
2018-09-30T13:35:52.012Z,21.40
2018-09-30T13:38:20.824Z,21.40
2018-09-30T13:40:49.755Z,21.40
2018-09-30T13:43:18.468Z,21.50
2018-09-30T13:45:47.351Z,21.50
2018-09-30T13:48:16.302Z,21.60
2018-09-30T13:50:45.113Z,21.60
2018-09-30T13:53:13.959Z,21.60
2018-09-30T13:55:42.903Z,21.60
2018-09-30T13:58:11.764Z,21.60
2018-09-30T14:00:40.565Z,21.70
2018-09-30T14:03:09.393Z,21.70
2018-09-30T14:05:38.227Z,21.70
2018-09-30T14:08:07.025Z,21.80
2018-09-30T14:10:35.869Z,21.80
2018-09-30T14:13:04.648Z,21.90
2018-09-30T14:15:33.478Z,21.90
2018-09-30T14:18:02.263Z,21.90
2018-09-30T14:20:31.088Z,21.90
2018-09-30T14:22:59.921Z,21.90
2018-09-30T14:25:28.784Z,21.90
2018-09-30T14:27:57.648Z,21.90
2018-09-30T14:30:26.510Z,22.00
2018-09-30T14:32:55.374Z,22.00
2018-09-30T14:35:24.233Z,22.00
2018-09-30T14:37:53.084Z,21.90
2018-09-30T14:40:21.928Z,21.90
2018-09-30T14:42:50.716Z,21.80
2018-09-30T14:45:19.587Z,21.90
2018-09-30T14:47:48.461Z,21.80
2018-09-30T14:50:17.303Z,21.80
2018-09-30T14:52:46.104Z,21.80
2018-09-30T14:55:14.959Z,21.80
2018-09-30T14:57:43.737Z,21.80
2018-09-30T15:00:12.600Z,21.80
2018-09-30T15:02:41.452Z,21.80
2018-09-30T15:05:10.281Z,21.70
2018-09-30T15:07:39.085Z,21.70
2018-09-30T15:10:07.947Z,21.70
2018-09-30T15:12:37.475Z,21.60
2018-09-30T15:15:08.115Z,21.60
2018-09-30T15:17:37.413Z,21.60
2018-09-30T15:20:06.336Z,21.60
2018-09-30T15:22:35.716Z,21.60
2018-09-30T15:25:04.727Z,21.50
2018-09-30T15:27:33.754Z,21.50
2018-09-30T15:30:02.595Z,21.40
2018-09-30T15:32:31.516Z,21.40
2018-09-30T15:35:00.349Z,21.40
2018-09-30T15:37:29.194Z,21.40
2018-09-30T15:39:58.050Z,21.30
2018-09-30T15:42:26.892Z,21.30
2018-09-30T15:44:55.687Z,21.20
2018-09-30T15:47:24.460Z,21.10
2018-09-30T15:49:53.299Z,21.10
2018-09-30T15:52:22.133Z,21.10
2018-09-30T15:54:50.943Z,20.90
2018-09-30T15:57:19.760Z,20.90
2018-09-30T15:59:48.647Z,20.80
2018-09-30T16:02:17.751Z,20.80
2018-09-30T16:04:48.711Z,20.60
2018-09-30T16:07:17.713Z,20.60
2018-09-30T16:09:46.643Z,20.40
2018-09-30T16:12:15.962Z,20.40
2018-09-30T16:14:44.811Z,20.30
2018-09-30T16:17:14.247Z,20.20
2018-09-30T16:19:43.369Z,20.20
2018-09-30T16:22:12.219Z,20.20
2018-09-30T16:24:41.607Z,20.00
2018-09-30T16:27:10.434Z,19.90
2018-09-30T16:29:39.208Z,19.90
2018-09-30T16:32:08.162Z,19.80
2018-09-30T16:34:37.049Z,19.70
2018-09-30T16:37:54.566Z,19.60
2018-09-30T16:40:23.521Z,19.50
2018-09-30T16:42:52.397Z,19.40
2018-09-30T16:45:21.249Z,19.40
2018-09-30T16:47:50.053Z,19.30
2018-09-30T16:50:18.884Z,19.20
2018-09-30T16:52:47.760Z,19.20
2018-09-30T16:55:16.692Z,19.10
2018-09-30T16:57:45.565Z,19.10
2018-09-30T17:00:14.426Z,19.00
2018-09-30T17:02:43.273Z,18.90
2018-09-30T17:05:12.195Z,18.90
2018-09-30T17:07:41.276Z,18.70
2018-09-30T17:10:10.108Z,18.80
2018-09-30T17:12:38.956Z,18.70
2018-09-30T17:15:08.033Z,18.60
2018-09-30T17:17:36.860Z,18.60
2018-09-30T17:20:05.705Z,18.60
2018-09-30T17:22:34.561Z,18.60
2018-09-30T17:25:03.386Z,18.50
2018-09-30T17:27:32.219Z,18.50
2018-09-30T17:30:01.045Z,18.40
2018-09-30T17:32:29.835Z,18.40
2018-09-30T17:34:58.678Z,18.30
2018-09-30T17:37:27.534Z,18.30
2018-09-30T17:39:56.425Z,18.30
2018-09-30T17:42:25.276Z,18.20
2018-09-30T17:44:54.106Z,18.20
2018-09-30T17:47:22.986Z,18.10
2018-09-30T17:49:51.780Z,18.10
2018-09-30T17:52:20.666Z,18.10
2018-09-30T17:54:49.496Z,18.00
2018-09-30T17:57:19.021Z,18.00
2018-09-30T17:59:47.824Z,17.90
2018-09-30T18:02:16.636Z,17.90
2018-09-30T18:04:45.437Z,17.90
2018-09-30T18:07:14.246Z,17.80
2018-09-30T18:09:44.923Z,17.80
2018-09-30T18:12:13.789Z,17.80
2018-09-30T18:14:42.789Z,17.70
2018-09-30T18:17:11.658Z,17.70
2018-09-30T18:19:40.664Z,17.60
2018-09-30T18:22:09.492Z,17.60
2018-09-30T18:24:38.308Z,17.50
2018-09-30T18:27:07.133Z,17.40
2018-09-30T18:29:36.026Z,17.40
2018-09-30T18:32:05.012Z,17.30
2018-09-30T18:34:33.856Z,17.30
2018-09-30T18:37:02.684Z,17.30
2018-09-30T18:39:31.543Z,17.10
2018-09-30T18:42:00.400Z,16.90
2018-09-30T18:44:29.272Z,16.90
2018-09-30T18:46:58.184Z,16.90
2018-09-30T18:49:27.033Z,16.80
2018-09-30T18:51:55.951Z,16.60
2018-09-30T18:54:24.786Z,16.60
2018-09-30T18:56:54.579Z,16.50
2018-09-30T18:59:23.448Z,16.60
2018-09-30T19:01:52.279Z,16.50
2018-09-30T19:04:21.084Z,16.30
2018-09-30T19:06:50.076Z,16.30
2018-09-30T19:09:19.007Z,16.10
2018-09-30T19:11:47.872Z,16.10
2018-09-30T19:14:16.756Z,16.10
2018-09-30T19:16:45.560Z,16.10
2018-09-30T19:19:14.446Z,16.10
2018-09-30T19:21:43.271Z,16.00
2018-09-30T19:24:12.125Z,16.10
2018-09-30T19:26:41.017Z,16.00
2018-09-30T19:29:09.941Z,15.80
2018-09-30T19:31:38.816Z,15.80
2018-09-30T19:34:07.658Z,15.90
2018-09-30T19:36:36.616Z,15.90
2018-09-30T19:39:08.112Z,15.90
2018-09-30T19:41:37.176Z,15.90
2018-09-30T19:44:06.024Z,15.90
2018-09-30T19:46:34.921Z,16.00
2018-09-30T19:49:03.710Z,16.00
2018-09-30T19:51:32.571Z,16.00
2018-09-30T19:54:01.535Z,15.90
2018-09-30T19:56:30.314Z,15.90
2018-09-30T19:58:59.150Z,15.80
2018-09-30T20:01:27.989Z,15.70
2018-09-30T20:03:56.904Z,15.70
2018-09-30T20:06:25.788Z,15.70
2018-09-30T20:08:54.645Z,15.60
2018-09-30T20:11:23.551Z,15.60
2018-09-30T20:13:52.387Z,15.50
2018-09-30T20:16:21.236Z,15.50
2018-09-30T20:18:50.089Z,15.50
2018-09-30T20:21:18.925Z,15.50
2018-09-30T20:23:47.765Z,15.40
2018-09-30T20:26:16.586Z,15.40
2018-09-30T20:28:45.569Z,15.40
2018-09-30T20:31:14.225Z,15.30
2018-09-30T20:33:42.987Z,15.30
2018-09-30T20:36:11.783Z,15.30
2018-09-30T20:38:41.624Z,15.20
2018-09-30T20:41:10.471Z,15.20
2018-09-30T20:43:39.340Z,15.10
2018-09-30T20:46:08.420Z,15.10
2018-09-30T20:48:37.260Z,15.10
2018-09-30T20:51:06.093Z,15.00
2018-09-30T20:53:34.959Z,14.90
2018-09-30T20:56:03.852Z,14.90
2018-09-30T20:58:32.645Z,14.90
2018-09-30T21:01:01.444Z,14.90
2018-09-30T21:03:30.228Z,14.80
2018-09-30T21:06:14.589Z,14.80
2018-09-30T21:08:44.384Z,14.80
2018-09-30T21:11:13.169Z,14.70
2018-09-30T21:13:42.291Z,14.70
2018-09-30T21:16:11.091Z,14.70
2018-09-30T21:18:39.994Z,14.60
2018-09-30T21:21:08.814Z,14.60
2018-09-30T21:23:37.622Z,14.50
2018-09-30T21:26:06.579Z,14.50
2018-09-30T21:28:35.391Z,14.40
2018-09-30T21:31:04.264Z,14.40
2018-09-30T21:33:33.096Z,14.30
2018-09-30T21:36:01.897Z,14.30
2018-09-30T21:38:30.665Z,14.30
2018-09-30T21:40:59.449Z,14.30
2018-09-30T21:43:28.275Z,14.30
2018-09-30T21:45:57.089Z,14.20
2018-09-30T21:48:25.860Z,14.20
2018-09-30T21:50:54.708Z,14.20
2018-09-30T21:53:23.526Z,14.00
2018-09-30T21:55:52.334Z,14.00
2018-09-30T21:58:21.132Z,14.00
2018-09-30T22:00:55.224Z,14.00
2018-09-30T22:03:24.083Z,14.00
2018-09-30T22:05:52.938Z,13.90
2018-09-30T22:08:21.766Z,13.90
2018-09-30T22:10:50.581Z,13.80
2018-09-30T22:13:19.412Z,13.80
2018-09-30T22:15:48.351Z,13.70
2018-09-30T22:18:17.149Z,13.70
2018-09-30T22:20:45.964Z,13.70
2018-09-30T22:23:14.843Z,13.70
2018-09-30T22:25:43.752Z,13.70
2018-09-30T22:28:12.547Z,13.70
2018-09-30T22:30:41.380Z,13.60
2018-09-30T22:33:10.184Z,13.60
2018-09-30T22:35:38.998Z,13.60
2018-09-30T22:38:08.045Z,13.60
2018-09-30T22:40:36.856Z,13.50
2018-09-30T22:43:05.684Z,13.50
2018-09-30T22:45:34.500Z,13.50
2018-09-30T22:48:03.284Z,13.50
2018-09-30T22:50:32.125Z,13.50
2018-09-30T22:53:00.932Z,13.50
2018-09-30T22:55:29.765Z,13.40
2018-09-30T22:57:58.573Z,13.30
2018-09-30T23:00:27.405Z,13.30
2018-09-30T23:02:56.204Z,13.20
2018-09-30T23:05:25.032Z,13.10
2018-09-30T23:07:53.835Z,13.10
2018-09-30T23:10:22.648Z,13.00
2018-09-30T23:12:51.435Z,13.00
2018-09-30T23:15:20.307Z,13.00
2018-09-30T23:17:49.157Z,12.90
2018-09-30T23:20:18.946Z,12.90
2018-09-30T23:22:47.905Z,12.80
2018-09-30T23:25:16.720Z,12.80
2018-09-30T23:27:45.552Z,12.80
2018-09-30T23:30:14.381Z,12.70
2018-09-30T23:32:43.181Z,12.70
2018-09-30T23:35:12.018Z,12.60
2018-09-30T23:37:40.816Z,12.60
2018-09-30T23:40:09.644Z,12.50
2018-09-30T23:42:38.414Z,12.50
2018-09-30T23:45:07.244Z,12.50
2018-09-30T23:47:36.060Z,12.50
2018-09-30T23:50:04.855Z,12.40
2018-09-30T23:52:33.700Z,12.40
2018-09-30T23:55:02.524Z,12.40
2018-09-30T23:57:31.292Z,12.30
